Time;durP1;ratioP1;P1;durP2;ratioP2;P2;SDS_P1;SDS_P2;PMS_P1;PMS_P2;Temp;Humidity;BMP_temperature;BMP_pressure;BME280_temperature;BME280_humidity;BME280_pressure;Samples;Min_cycle;Max_cycle;Signal;HPM_P1;HPM_P2
2022/04/18 00:00:43;;;;;;;10.32;5.18;;;6.20;40.40;;;;;;5073742;28;20389;-71
2022/04/18 00:03:09;;;;;;;12.38;4.90;;;6.00;40.60;;;;;;5056418;28;20041;-73
2022/04/18 00:05:35;;;;;;;8.45;4.60;;;5.90;40.70;;;;;;5033945;28;20048;-72
2022/04/18 00:08:03;;;;;;;8.90;4.47;;;5.70;41.00;;;;;;5040614;28;20052;-71
2022/04/18 00:10:29;;;;;;;8.43;4.57;;;5.60;41.00;;;;;;5020289;28;20095;-71
2022/04/18 00:12:55;;;;;;;9.00;5.07;;;5.50;41.30;;;;;;5073876;28;20116;-73
2022/04/18 00:15:23;;;;;;;8.65;4.38;;;5.50;41.10;;;;;;5055630;28;20536;-74
2022/04/18 00:17:49;;;;;;;8.20;4.25;;;5.50;41.00;;;;;;5039858;28;20050;-71
2022/04/18 00:20:15;;;;;;;11.23;5.32;;;5.50;41.10;;;;;;5048528;28;20040;-73
2022/04/18 00:22:42;;;;;;;10.55;4.70;;;5.50;41.10;;;;;;5060591;28;20036;-73
2022/04/18 00:25:08;;;;;;;11.10;5.30;;;5.50;41.10;;;;;;5036746;28;20056;-71
2022/04/18 00:27:34;;;;;;;;;;;5.50;41.20;;;;;;5037615;28;20047;-73
2022/04/18 00:30:01;;;;;;;11.43;5.55;;;5.50;40.50;;;;;;5040256;28;20352;-71
2022/04/18 00:32:27;;;;;;;15.10;5.32;;;5.40;40.20;;;;;;5020653;28;20482;-73
2022/04/18 00:34:53;;;;;;;12.30;5.18;;;5.40;41.20;;;;;;5036868;28;20029;-73
2022/04/18 00:37:19;;;;;;;10.15;4.65;;;5.40;41.30;;;;;;5026601;28;20037;-73
2022/04/18 00:39:46;;;;;;;10.93;4.53;;;5.40;41.50;;;;;;5039092;28;20326;-71
2022/04/18 00:42:12;;;;;;;9.63;4.95;;;5.30;41.90;;;;;;5073532;28;20067;-71
2022/04/18 00:44:38;;;;;;;8.93;5.10;;;5.30;42.00;;;;;;5054782;28;20036;-72
2022/04/18 00:47:04;;;;;;;9.00;5.22;;;5.30;41.80;;;;;;5055131;28;20033;-73
2022/04/18 00:49:30;;;;;;;11.05;4.50;;;5.30;41.20;;;;;;5050377;28;20039;-73
2022/04/18 00:51:57;;;;;;;10.70;4.72;;;5.40;41.80;;;;;;5050316;28;20029;-73
2022/04/18 00:54:24;;;;;;;7.90;4.93;;;5.30;42.00;;;;;;5036226;28;20045;-71
2022/04/18 00:56:53;;;;;;;8.32;4.32;;;5.30;42.00;;;;;;5037896;28;20040;-71
2022/04/18 00:59:21;;;;;;;11.57;5.85;;;5.30;42.40;;;;;;5055440;28;20045;-73
2022/04/18 01:01:47;;;;;;;9.95;5.03;;;5.20;42.30;;;;;;5038924;28;20032;-72
2022/04/18 01:04:13;;;;;;;10.63;5.45;;;5.20;42.50;;;;;;5063705;28;20047;-71
2022/04/18 01:06:39;;;;;;;11.90;5.78;;;5.20;42.40;;;;;;5063576;28;20390;-71
2022/04/18 01:09:05;;;;;;;;;;;5.10;41.80;;;;;;5055303;28;20540;-72
2022/04/18 01:11:33;;;;;;;11.13;5.53;;;5.10;41.30;;;;;;5038519;28;19920;-71
2022/04/18 01:14:02;;;;;;;10.65;5.70;;;5.10;42.30;;;;;;5043596;28;20107;-71
2022/04/18 01:16:28;;;;;;;12.63;5.00;;;5.10;42.60;;;;;;5054511;28;20044;-71
2022/04/18 01:18:56;;;;;;;;;;;5.00;42.60;;;;;;5051423;28;20107;-71
2022/04/18 01:21:22;;;;;;;10.68;4.55;;;5.10;42.30;;;;;;5042285;28;19924;-71
2022/04/18 01:23:48;;;;;;;8.45;4.30;;;5.10;42.60;;;;;;5027174;28;20483;-71
2022/04/18 01:28:59;;;;;;;7.95;4.65;;;5.10;42.40;;;;;;5038385;28;20044;-71
2022/04/18 01:31:45;;;;;;;;;;;5.10;42.80;;;;;;5060440;28;20531;-72
2022/04/18 01:34:11;;;;;;;9.65;4.57;;;5.10;42.00;;;;;;5072116;28;20057;-73
2022/04/18 01:36:39;;;;;;;9.00;4.05;;;5.10;42.40;;;;;;5053611;28;20082;-71
2022/04/18 01:39:05;;;;;;;9.25;4.10;;;5.10;42.80;;;;;;5036117;28;20299;-71
2022/04/18 01:41:31;;;;;;;10.57;4.63;;;5.10;43.00;;;;;;5039140;28;20033;-73
2022/04/18 01:43:57;;;;;;;12.05;5.90;;;5.10;43.10;;;;;;5036147;28;20040;-73
2022/04/18 01:46:23;;;;;;;;;;;5.00;42.40;;;;;;5035618;28;20033;-73
2022/04/18 01:48:53;;;;;;;8.40;4.15;;;5.00;41.80;;;;;;5038913;28;19920;-71
2022/04/18 01:51:19;;;;;;;11.82;4.13;;;5.10;42.70;;;;;;5052337;28;20033;-71
2022/04/18 01:53:46;;;;;;;;;;;5.00;42.80;;;;;;5053441;28;20037;-72
2022/04/18 01:56:12;;;;;;;11.75;4.88;;;5.00;42.20;;;;;;5037247;28;20368;-73
2022/04/18 01:58:38;;;;;;;9.68;4.85;;;5.00;42.50;;;;;;5053039;28;20393;-71
2022/04/18 02:01:06;;;;;;;9.98;5.22;;;5.00;42.80;;;;;;5053175;28;20127;-72
2022/04/18 02:03:33;;;;;;;10.18;4.68;;;5.00;42.90;;;;;;5053382;28;20048;-71
2022/04/18 02:05:59;;;;;;;10.00;4.28;;;4.90;43.00;;;;;;5052503;28;20028;-72
2022/04/18 02:08:26;;;;;;;10.63;4.50;;;5.00;43.20;;;;;;5052636;28;20036;-71
2022/04/18 02:10:52;;;;;;;8.23;4.50;;;5.00;43.20;;;;;;5039355;28;20029;-71
2022/04/18 02:13:19;;;;;;;10.95;5.05;;;5.00;43.30;;;;;;5058199;28;20052;-73
2022/04/18 02:15:45;;;;;;;9.85;4.60;;;5.00;43.30;;;;;;5037002;28;20466;-73
2022/04/18 02:18:11;;;;;;;10.73;4.53;;;4.90;42.70;;;;;;5038475;28;20333;-71
2022/04/18 02:20:37;;;;;;;9.98;5.07;;;5.00;43.40;;;;;;5045953;28;20040;-73
2022/04/18 02:23:04;;;;;;;9.35;4.72;;;5.00;43.20;;;;;;5042037;28;20036;-73
2022/04/18 02:25:30;;;;;;;11.15;4.90;;;4.90;42.70;;;;;;5049943;28;20092;-72
2022/04/18 02:27:57;;;;;;;8.52;4.28;;;4.90;43.30;;;;;;5043093;28;20378;-71
2022/04/18 02:30:23;;;;;;;9.30;4.93;;;4.90;43.10;;;;;;5053185;28;20087;-71
2022/04/18 02:32:50;;;;;;;8.52;4.60;;;5.00;43.30;;;;;;5051772;28;20037;-73
2022/04/18 02:35:35;;;;;;;;;;;4.90;43.20;;;;;;5038245;28;20102;-73
2022/04/18 02:38:01;;;;;;;8.95;4.22;;;4.90;42.60;;;;;;5056278;28;20313;-71
2022/04/18 02:40:28;;;;;;;7.97;4.82;;;4.90;43.10;;;;;;5051368;28;20047;-73
2022/04/18 02:42:54;;;;;;;8.13;4.50;;;4.90;43.20;;;;;;5044352;28;20462;-72
2022/04/18 02:45:20;;;;;;;10.45;4.70;;;4.90;43.40;;;;;;5044834;28;20041;-73
2022/04/18 02:47:47;;;;;;;8.90;4.72;;;4.90;43.50;;;;;;5064121;28;20036;-73
2022/04/18 02:50:14;;;;;;;9.00;3.97;;;4.90;43.40;;;;;;5048916;28;20035;-71
2022/04/18 02:52:40;;;;;;;8.85;5.00;;;4.90;43.40;;;;;;5031702;28;20490;-73
2022/04/18 02:55:07;;;;;;;10.77;4.78;;;4.90;43.60;;;;;;5048739;28;20037;-73
2022/04/18 02:57:33;;;;;;;8.13;4.55;;;4.90;42.90;;;;;;5043427;28;20033;-73
2022/04/18 02:59:59;;;;;;;9.10;4.85;;;4.90;43.40;;;;;;5048233;28;20036;-73
2022/04/18 03:02:25;;;;;;;12.00;4.72;;;4.90;43.30;;;;;;5053420;28;20051;-71
2022/04/18 03:04:51;;;;;;;10.20;4.88;;;4.90;43.30;;;;;;5064505;28;20049;-71
2022/04/18 03:07:19;;;;;;;12.27;4.32;;;5.00;43.20;;;;;;5063646;28;20037;-73
2022/04/18 03:09:46;;;;;;;9.43;4.70;;;5.00;43.10;;;;;;5052060;28;20029;-71
2022/04/18 03:12:12;;;;;;;7.72;4.22;;;5.00;43.00;;;;;;5044000;28;20029;-73
2022/04/18 03:14:38;;;;;;;10.05;4.97;;;5.00;43.10;;;;;;5063696;28;20090;-71
2022/04/18 03:17:04;;;;;;;8.48;4.22;;;5.00;43.00;;;;;;5040363;28;20036;-73
2022/04/18 03:19:32;;;;;;;8.32;5.28;;;5.00;43.00;;;;;;5070177;28;20033;-71
2022/04/18 03:21:59;;;;;;;7.65;4.75;;;5.00;43.00;;;;;;5057621;28;20033;-73
2022/04/18 03:24:25;;;;;;;8.65;4.75;;;4.90;43.10;;;;;;5050881;28;20435;-71
2022/04/18 03:26:51;;;;;;;8.85;4.72;;;5.00;43.10;;;;;;5056430;28;20039;-73
2022/04/18 03:29:17;;;;;;;9.18;4.50;;;4.90;43.10;;;;;;5039429;28;20501;-71
2022/04/18 03:31:43;;;;;;;11.52;5.82;;;4.90;43.20;;;;;;5056026;28;20466;-73
2022/04/18 03:34:09;;;;;;;9.45;5.10;;;4.90;43.30;;;;;;5051560;28;20055;-71
2022/04/18 03:42:09;;;;;;;10.25;5.45;;;4.70;44.00;;;;;;5043119;28;20047;-71
2022/04/18 03:44:40;;;;;;;10.38;4.53;;;4.70;44.10;;;;;;5001939;28;20064;-71
2022/04/18 03:47:06;;;;;;;8.00;4.47;;;4.70;44.20;;;;;;5032276;28;20032;-71
2022/04/18 03:49:32;;;;;;;8.18;4.40;;;4.60;44.10;;;;;;5045101;28;20084;-74
2022/04/18 03:51:58;;;;;;;9.15;4.43;;;4.70;44.00;;;;;;5036048;28;20056;-71
2022/04/18 03:54:24;;;;;;;9.93;4.68;;;4.60;43.90;;;;;;5046760;28;20038;-73
2022/04/18 03:56:50;;;;;;;9.07;4.28;;;4.70;44.00;;;;;;5036541;28;20044;-71
2022/04/18 03:59:16;;;;;;;8.90;4.40;;;4.70;44.00;;;;;;5020301;28;20037;-71
2022/04/18 04:01:42;;;;;;;7.68;3.88;;;4.70;44.00;;;;;;5034814;28;20037;-73
2022/04/18 04:04:09;;;;;;;14.18;4.93;;;4.70;43.90;;;;;;5048059;28;20033;-73
2022/04/18 04:06:35;;;;;;;8.65;4.95;;;4.70;43.90;;;;;;5035843;28;20123;-73
2022/04/18 04:09:01;;;;;;;8.77;4.35;;;4.70;43.90;;;;;;5053165;28;20399;-73
2022/04/18 04:11:27;;;;;;;10.45;4.50;;;4.70;43.80;;;;;;5052378;28;20090;-73
2022/04/18 04:13:53;;;;;;;8.80;4.45;;;4.70;43.70;;;;;;5029987;28;20037;-73
2022/04/18 04:16:19;;;;;;;11.00;4.68;;;4.70;43.70;;;;;;5035815;28;20040;-71
2022/04/18 04:18:45;;;;;;;;;;;4.70;43.00;;;;;;5036997;28;20033;-73
2022/04/18 04:21:11;;;;;;;11.68;5.63;;;4.80;43.30;;;;;;5035706;28;19921;-72
2022/04/18 04:23:39;;;;;;;13.05;6.10;;;4.80;43.30;;;;;;5031538;28;20493;-73
2022/04/18 04:26:06;;;;;;;11.50;5.07;;;4.80;43.40;;;;;;5053217;28;20072;-71
2022/04/18 04:28:32;;;;;;;8.50;4.57;;;4.80;43.40;;;;;;5022618;28;20033;-71
2022/04/18 04:30:58;;;;;;;12.65;5.20;;;4.90;43.50;;;;;;5025673;28;20037;-71
2022/04/18 04:33:24;;;;;;;8.73;4.43;;;4.90;43.60;;;;;;5053318;28;20037;-73
2022/04/18 04:35:50;;;;;;;14.38;7.35;;;4.90;43.60;;;;;;5053069;28;20036;-71
2022/04/18 04:38:16;;;;;;;17.13;8.77;;;4.90;43.70;;;;;;5026331;28;20041;-71
2022/04/18 04:40:43;;;;;;;19.23;10.63;;;4.90;43.60;;;;;;5034095;28;20442;-71
2022/04/18 04:43:11;;;;;;;72.68;47.17;;;4.90;43.60;;;;;;5053634;28;20122;-73
2022/04/18 04:45:37;;;;;;;62.92;33.35;;;5.00;43.60;;;;;;5027216;28;20133;-71
2022/04/18 04:48:03;;;;;;;169.48;94.00;;;5.00;43.50;;;;;;5040223;28;20102;-71
2022/04/18 04:50:31;;;;;;;193.55;114.15;;;5.00;42.80;;;;;;5047487;28;20041;-71
2022/04/18 04:52:57;;;;;;;134.60;74.68;;;5.10;43.50;;;;;;5022031;28;20021;-72
2022/04/18 04:55:23;;;;;;;;;;;5.20;43.40;;;;;;5036543;28;20037;-72
2022/04/18 04:57:49;;;;;;;40.90;22.85;;;5.20;43.00;;;;;;5048691;28;19923;-71
2022/04/18 05:00:16;;;;;;;74.25;47.75;;;5.30;43.20;;;;;;5040023;28;20036;-73
2022/04/18 05:02:42;;;;;;;85.85;45.83;;;5.20;43.00;;;;;;5045950;28;20132;-71
2022/04/18 05:05:09;;;;;;;122.30;67.45;;;5.30;43.10;;;;;;5042598;28;20056;-74
2022/04/18 05:07:35;;;;;;;87.28;52.00;;;5.30;43.00;;;;;;5034016;28;20033;-71
2022/04/18 05:10:01;;;;;;;63.65;38.78;;;5.40;43.10;;;;;;5023600;28;20508;-73
2022/04/18 05:12:28;;;;;;;36.55;23.67;;;5.50;43.20;;;;;;5013058;28;20040;-73
2022/04/18 05:15:01;;;;;;;51.20;24.42;;;5.50;43.20;;;;;;5017187;28;20029;-73
2022/04/18 05:17:27;;;;;;;50.33;29.40;;;5.50;43.10;;;;;;5049970;28;20110;-73
2022/04/18 05:19:53;;;;;;;76.30;35.90;;;5.60;43.10;;;;;;5034772;28;20037;-71
2022/04/18 05:22:19;;;;;;;64.82;37.63;;;5.60;43.00;;;;;;5033740;28;20407;-71
2022/04/18 05:24:45;;;;;;;64.38;32.20;;;5.70;43.00;;;;;;5016448;28;20030;-71
2022/04/18 05:27:15;;;;;;;58.08;29.38;;;5.80;42.80;;;;;;5015520;28;20034;-73
2022/04/18 05:29:42;;;;;;;34.17;17.48;;;5.80;42.90;;;;;;5042395;28;20025;-73
2022/04/18 05:32:09;;;;;;;17.98;10.40;;;5.80;42.80;;;;;;5012511;28;20033;-71
2022/04/18 05:34:35;;;;;;;;;;;5.90;43.00;;;;;;5052844;28;20029;-71
2022/04/18 05:37:01;;;;;;;21.98;9.48;;;6.00;42.10;;;;;;5031755;28;19920;-73
2022/04/18 05:39:28;;;;;;;38.53;18.45;;;6.00;42.80;;;;;;5048695;28;20071;-71
2022/04/18 05:41:56;;;;;;;57.38;26.00;;;6.10;42.90;;;;;;5033868;28;20484;-73
2022/04/18 05:44:22;;;;;;;45.25;20.58;;;6.10;42.60;;;;;;5039751;28;20072;-71
2022/04/18 05:46:49;;;;;;;45.38;22.35;;;6.20;42.50;;;;;;5015761;28;20088;-73
2022/04/18 05:49:15;;;;;;;26.80;14.43;;;6.30;42.00;;;;;;5041737;28;20116;-71
2022/04/18 05:51:42;;;;;;;12.43;7.10;;;6.40;42.40;;;;;;5016083;28;20486;-73
2022/04/18 05:54:09;;;;;;;17.42;9.52;;;6.50;42.40;;;;;;5001058;28;20045;-73
2022/04/18 05:56:35;;;;;;;24.63;13.55;;;6.50;41.60;;;;;;5039956;28;20040;-71
2022/04/18 05:59:02;;;;;;;23.13;11.73;;;6.70;42.00;;;;;;5015376;28;20499;-73
2022/04/18 06:01:29;;;;;;;19.38;8.98;;;6.70;41.60;;;;;;5024428;28;20037;-73
2022/04/18 06:03:56;;;;;;;12.02;5.85;;;6.90;41.70;;;;;;5051749;28;20556;-71
2022/04/18 06:06:23;;;;;;;11.07;6.50;;;7.00;41.10;;;;;;5052007;28;20036;-74
2022/04/18 06:08:49;;;;;;;11.95;5.32;;;7.10;40.60;;;;;;5025317;28;20039;-71
2022/04/18 06:11:15;;;;;;;9.45;5.40;;;7.20;40.90;;;;;;5034018;28;20037;-73
2022/04/18 06:13:41;;;;;;;13.18;6.22;;;7.30;40.70;;;;;;5021717;28;20597;-74
2022/04/18 06:16:07;;;;;;;24.40;10.82;;;7.40;40.30;;;;;;5032362;28;20033;-71
2022/04/18 06:18:34;;;;;;;15.18;7.57;;;7.60;39.80;;;;;;5015037;28;20045;-72
2022/04/18 06:21:00;;;;;;;22.83;8.52;;;7.70;39.50;;;;;;5020364;28;20041;-74
2022/04/18 06:23:26;;;;;;;16.20;7.07;;;7.80;39.30;;;;;;5022606;28;20040;-73
2022/04/18 06:25:52;;;;;;;11.27;5.38;;;7.80;38.90;;;;;;5045975;28;20087;-74
2022/04/18 06:28:19;;;;;;;13.98;4.90;;;7.90;38.80;;;;;;5026013;28;20451;-74
2022/04/18 06:30:46;;;;;;;13.68;4.78;;;8.00;38.30;;;;;;5027362;28;20117;-71
2022/04/18 06:33:13;;;;;;;7.13;4.07;;;8.00;38.20;;;;;;5026035;28;20041;-71
2022/04/18 06:35:41;;;;;;;10.40;4.43;;;8.20;38.80;;;;;;5032174;28;20049;-71
2022/04/18 06:38:09;;;;;;;9.13;4.38;;;8.20;38.00;;;;;;5023824;28;20041;-73
2022/04/18 06:40:36;;;;;;;10.43;5.30;;;8.30;37.80;;;;;;5046814;28;20087;-73
2022/04/18 06:43:02;;;;;;;8.80;4.22;;;8.40;37.70;;;;;;5047499;28;20061;-71
2022/04/18 06:45:29;;;;;;;7.03;4.00;;;8.50;37.30;;;;;;5042922;28;20092;-71
2022/04/18 06:47:55;;;;;;;9.05;4.65;;;8.50;37.10;;;;;;5038245;28;20078;-71
2022/04/18 06:50:21;;;;;;;9.75;4.72;;;8.60;36.80;;;;;;5024107;28;20052;-72
2022/04/18 06:52:49;;;;;;;7.40;4.13;;;8.70;36.90;;;;;;5036335;28;20036;-71
2022/04/18 06:55:17;;;;;;;8.95;4.18;;;8.80;36.80;;;;;;5050214;28;20052;-73
2022/04/18 06:57:43;;;;;;;9.27;4.95;;;8.90;36.60;;;;;;5038206;28;20037;-72
2022/04/18 07:00:10;;;;;;;9.20;4.60;;;9.00;36.50;;;;;;5057256;28;20448;-73
2022/04/18 07:02:36;;;;;;;9.30;4.80;;;9.00;35.80;;;;;;5054489;28;20445;-71
2022/04/18 07:05:02;;;;;;;7.57;4.20;;;9.20;36.20;;;;;;5040170;28;20041;-73
2022/04/18 07:07:28;;;;;;;8.38;4.78;;;9.40;36.10;;;;;;5031411;28;20372;-72
2022/04/18 07:09:54;;;;;;;10.25;4.63;;;9.80;36.30;;;;;;5021478;28;20030;-72
2022/04/18 07:12:39;;;;;;;7.55;3.85;;;10.10;36.20;;;;;;5046947;28;20037;-73
2022/04/18 07:15:06;;;;;;;8.80;4.45;;;10.50;35.70;;;;;;5022090;28;20037;-72
2022/04/18 07:17:33;;;;;;;7.90;4.38;;;10.80;35.10;;;;;;5039177;28;20037;-73
2022/04/18 07:19:59;;;;;;;11.45;4.18;;;11.20;35.00;;;;;;5057766;28;20048;-72
2022/04/18 07:22:25;;;;;;;7.55;3.47;;;11.60;34.80;;;;;;5025851;28;20036;-72
2022/04/18 07:24:51;;;;;;;7.50;3.83;;;11.90;34.30;;;;;;5042759;28;20048;-72
2022/04/18 07:27:17;;;;;;;7.15;4.15;;;12.20;34.10;;;;;;5029382;28;20079;-74
2022/04/18 07:29:43;;;;;;;8.15;4.38;;;12.60;33.70;;;;;;5057989;28;20064;-74
2022/04/18 07:32:10;;;;;;;9.40;3.75;;;13.10;33.50;;;;;;5038422;28;20043;-74
2022/04/18 07:34:36;;;;;;;;;;;13.40;32.70;;;;;;5029855;28;20076;-72
2022/04/18 07:37:02;;;;;;;9.35;4.97;;;13.80;33.40;;;;;;5043841;28;20412;-72
2022/04/18 07:39:28;;;;;;;9.43;4.10;;;14.30;32.00;;;;;;5018435;28;20405;-72
2022/04/18 07:41:54;;;;;;;10.45;3.88;;;14.70;31.20;;;;;;5059943;28;20374;-72
2022/04/18 07:44:20;;;;;;;6.93;3.53;;;15.00;30.20;;;;;;5075293;28;20079;-73
2022/04/18 07:46:46;;;;;;;9.48;4.30;;;15.30;29.80;;;;;;5040525;28;20134;-73
2022/04/18 07:49:12;;;;;;;8.65;4.50;;;15.60;28.80;;;;;;5070486;28;20033;-72
2022/04/18 07:51:40;;;;;;;7.93;3.60;;;16.00;28.80;;;;;;5076364;28;20359;-74
2022/04/18 07:54:12;;;;;;;8.15;3.80;;;16.40;28.40;;;;;;5076283;28;20060;-74
2022/04/18 07:56:38;;;;;;;6.93;3.85;;;16.90;28.00;;;;;;5056672;28;20488;-73
2022/04/18 07:59:05;;;;;;;6.63;3.55;;;17.40;27.30;;;;;;5036144;28;20560;-72
2022/04/18 08:01:32;;;;;;;7.22;3.65;;;17.90;26.40;;;;;;5064188;28;20359;-73
2022/04/18 08:06:44;;;;;;;7.10;3.42;;;18.70;25.40;;;;;;5053975;28;20043;-72
2022/04/18 08:09:10;;;;;;;7.53;4.10;;;19.20;25.30;;;;;;5066038;28;20032;-73
2022/04/18 08:11:36;;;;;;;8.27;4.25;;;19.50;24.30;;;;;;5057246;28;20037;-73
2022/04/18 08:14:05;;;;;;;8.50;3.78;;;19.90;24.00;;;;;;5049087;28;20497;-73
2022/04/18 08:16:31;;;;;;;6.97;3.42;;;20.40;23.40;;;;;;5073422;28;20076;-72
2022/04/18 08:18:57;;;;;;;7.20;3.85;;;21.00;23.00;;;;;;5034433;28;20063;-74
2022/04/18 08:21:23;;;;;;;7.35;4.00;;;21.50;22.60;;;;;;5032906;28;20112;-74
2022/04/18 08:23:53;;;;;;;9.70;4.13;;;22.00;22.00;;;;;;5050904;28;20029;-72
2022/04/18 08:26:21;;;;;;;11.38;3.92;;;22.20;21.10;;;;;;5040599;28;20469;-74
2022/04/18 08:28:47;;;;;;;6.93;3.88;;;22.60;21.00;;;;;;5047706;28;20064;-72
2022/04/18 08:31:14;;;;;;;;;;;23.10;20.60;;;;;;5038106;28;20041;-72
2022/04/18 08:33:40;;;;;;;6.28;3.50;;;23.50;21.20;;;;;;5055880;28;19920;-74
2022/04/18 08:36:06;;;;;;;9.23;4.22;;;24.00;19.20;;;;;;5055654;28;20036;-74
2022/04/18 08:38:32;;;;;;;;;;;24.30;18.70;;;;;;5052446;28;20106;-73
2022/04/18 08:41:05;;;;;;;5.93;3.40;;;24.70;19.60;;;;;;5048625;28;20293;-74
2022/04/18 08:43:31;;;;;;;7.47;4.85;;;25.40;17.90;;;;;;5055767;28;20429;-72
2022/04/18 08:45:57;;;;;;;7.00;3.90;;;25.70;17.10;;;;;;5044252;28;20021;-73
2022/04/18 08:53:59;;;;;;;7.07;4.15;;;26.70;15.90;;;;;;5072368;28;20184;-73
2022/04/18 08:56:26;;;;;;;6.38;3.70;;;27.10;15.90;;;;;;5054420;28;20029;-72
2022/04/18 08:58:52;;;;;;;8.20;4.18;;;27.50;14.90;;;;;;5067081;28;20356;-74
2022/04/18 09:01:18;;;;;;;13.18;9.77;;;28.00;15.00;;;;;;5043221;28;20493;-74
2022/04/18 09:03:45;;;;;;;8.98;4.32;;;28.30;14.40;;;;;;5050714;28;20445;-76
2022/04/18 09:06:30;;;;;;;5.57;3.00;;;28.60;14.10;;;;;;5044524;28;20037;-74
2022/04/18 09:08:58;;;;;;;6.07;3.17;;;29.00;14.20;;;;;;5036813;28;20048;-73
2022/04/18 09:11:46;;;;;;;7.38;3.78;;;29.30;13.60;;;;;;5035293;28;20047;-74
2022/04/18 09:14:34;;;;;;;5.30;3.00;;;29.30;13.60;;;;;;5050376;28;20440;-73
2022/04/18 09:17:01;;;;;;;5.82;3.33;;;29.20;13.40;;;;;;5071711;28;20040;-73
2022/04/18 09:19:33;;;;;;;13.90;10.25;;;30.00;12.70;;;;;;5036537;28;20448;-74
2022/04/18 09:22:01;;;;;;;9.38;5.85;;;30.50;11.60;;;;;;5051766;28;20029;-74
2022/04/18 09:24:48;;;;;;;6.68;3.72;;;31.20;11.90;;;;;;5028677;28;20065;-73
2022/04/18 09:30:16;;;;;;;6.07;2.83;;;31.90;11.20;;;;;;5045299;28;20042;-75
2022/04/18 09:33:03;;;;;;;6.13;2.83;;;31.90;10.50;;;;;;5046997;28;20393;-73
2022/04/18 09:35:30;;;;;;;5.78;2.83;;;32.20;10.40;;;;;;5043296;28;20048;-76
2022/04/18 09:38:18;;;;;;;6.72;3.25;;;32.30;10.40;;;;;;5035533;28;20486;-73
2022/04/18 09:40:44;;;;;;;8.80;3.80;;;32.30;10.40;;;;;;5041865;28;20029;-74
2022/04/18 09:43:10;;;;;;;6.22;3.28;;;32.80;9.50;;;;;;5072373;28;20048;-76
2022/04/18 09:45:37;;;;;;;8.18;3.33;;;33.40;9.70;;;;;;5046229;28;20029;-74
2022/04/18 09:48:04;;;;;;;6.05;2.47;;;33.60;8.90;;;;;;5045519;28;20028;-73
2022/04/18 09:53:35;;;;;;;5.80;3.00;;;34.80;8.30;;;;;;5070570;28;20048;-75
2022/04/18 09:56:01;;;;;;;4.80;2.93;;;35.20;8.90;;;;;;5047164;28;20395;-73
2022/04/18 09:58:27;;;;;;;6.63;2.65;;;35.40;8.40;;;;;;5048703;28;20033;-75
2022/04/18 10:00:55;;;;;;;7.38;2.67;;;35.40;8.10;;;;;;5052870;28;20033;-73
2022/04/18 10:03:21;;;;;;;7.05;2.58;;;35.90;7.70;;;;;;5072097;28;20033;-73
2022/04/18 10:05:49;;;;;;;5.55;2.92;;;36.70;7.90;;;;;;5051475;28;20033;-73
2022/04/18 10:08:15;;;;;;;5.63;2.95;;;37.30;7.80;;;;;;5054110;28;20037;-75
2022/04/18 10:10:41;;;;;;;5.38;2.42;;;37.50;7.40;;;;;;5035519;28;20048;-74
2022/04/18 10:13:08;;;;;;;4.68;2.60;;;37.60;7.30;;;;;;5069732;28;20041;-73
2022/04/18 10:15:37;;;;;;;5.53;2.30;;;37.50;6.80;;;;;;5038619;28;20040;-74
2022/04/18 10:18:10;;;;;;;5.57;2.30;;;37.80;7.00;;;;;;5042844;28;20068;-72
2022/04/18 10:21:24;;;;;;;5.15;2.20;;;38.00;6.90;;;;;;5053180;28;20626;-73
2022/04/18 10:24:46;;;;;;;7.07;2.45;;;35.60;7.60;;;;;;5061976;28;20074;-72
2022/04/18 10:27:49;;;;;;;5.78;2.75;;;33.10;8.70;;;;;;5069183;28;20047;-73
2022/04/18 10:30:17;;;;;;;6.55;3.17;;;33.10;8.60;;;;;;5071130;28;20036;-73
2022/04/18 10:32:43;;;;;;;20.90;4.80;;;34.60;7.90;;;;;;5046691;28;20517;-74
2022/04/18 10:35:13;;;;;;;9.43;5.45;;;36.00;7.50;;;;;;5048818;28;20436;-73
2022/04/18 10:37:43;;;;;;;8.10;3.60;;;36.20;7.10;;;;;;5052182;28;20028;-72
2022/04/18 10:40:10;;;;;;;8.23;3.30;;;34.50;7.60;;;;;;5019834;28;20120;-75
2022/04/18 10:42:55;;;;;;;6.07;2.80;;;33.70;8.00;;;;;;5052243;28;20531;-72
2022/04/18 10:45:25;;;;;;;6.72;3.58;;;32.70;8.80;;;;;;5038525;28;20498;-74
2022/04/18 10:48:11;;;;;;;6.65;4.03;;;32.10;8.70;;;;;;5059019;28;20025;-75
2022/04/18 10:50:56;;;;;;;6.67;3.67;;;31.50;9.00;;;;;;5039837;28;20390;-75
2022/04/18 10:53:40;;;;;;;8.68;4.88;;;30.30;9.70;;;;;;5061610;28;20494;-73
2022/04/18 10:56:09;;;;;;;7.35;3.88;;;29.00;10.20;;;;;;5047545;28;20037;-75
2022/04/18 10:58:35;;;;;;;6.90;4.13;;;28.20;10.20;;;;;;5069113;28;20481;-73
2022/04/18 11:01:07;;;;;;;9.05;4.95;;;29.80;9.90;;;;;;5052729;28;20355;-74
2022/04/18 11:04:11;;;;;;;11.00;5.70;;;32.20;9.50;;;;;;5053233;28;20040;-74
2022/04/18 11:06:38;;;;;;;5.13;2.45;;;33.00;8.70;;;;;;5033988;28;20028;-74
2022/04/18 11:09:24;;;;;;;5.60;2.80;;;32.60;8.60;;;;;;5043847;28;20123;-74
2022/04/18 11:12:31;;;;;;;6.57;2.83;;;33.70;7.90;;;;;;5046755;28;20591;-75
2022/04/18 11:15:17;;;;;;;6.38;2.78;;;35.20;8.20;;;;;;5028567;28;20045;-73
2022/04/18 11:17:43;;;;;;;5.20;2.72;;;36.50;7.50;;;;;;5043960;28;20051;-73
2022/04/18 11:20:47;;;;;;;6.97;2.72;;;37.80;6.70;;;;;;5045750;28;20048;-74
2022/04/18 11:23:32;;;;;;;6.65;2.25;;;38.00;6.70;;;;;;5067574;28;20049;-75
2022/04/18 11:26:01;;;;;;;5.30;2.60;;;37.70;6.00;;;;;;5063434;28;20127;-75
2022/04/18 11:28:51;;;;;;;7.13;3.15;;;38.70;5.70;;;;;;5050843;28;20362;-74
2022/04/18 11:31:21;;;;;;;6.20;2.47;;;39.00;5.90;;;;;;5035657;28;20025;-73
2022/04/18 11:33:47;;;;;;;10.48;2.42;;;39.30;5.60;;;;;;5051544;28;20028;-74
2022/04/18 11:36:14;;;;;;;5.45;2.50;;;39.70;5.20;;;;;;5052892;28;20032;-73
2022/04/18 11:38:41;;;;;;;4.63;2.30;;;38.10;5.60;;;;;;5053548;28;20083;-73
2022/04/18 11:41:26;;;;;;;4.80;2.33;;;37.50;5.50;;;;;;5040281;28;20090;-73
2022/04/18 11:44:12;;;;;;;8.07;2.33;;;35.90;5.70;;;;;;5072480;28;20048;-73
2022/04/18 11:46:39;;;;;;;5.95;2.47;;;34.10;6.70;;;;;;5056198;28;20031;-74
2022/04/18 11:49:05;;;;;;;6.85;3.03;;;35.70;5.70;;;;;;5034952;28;20040;-75
2022/04/18 11:51:50;;;;;;;4.10;1.98;;;36.80;5.70;;;;;;5074047;28;20429;-73
2022/04/18 11:54:16;;;;;;;6.73;2.63;;;38.60;5.40;;;;;;5056316;28;20428;-73
2022/04/18 11:56:42;;;;;;;5.53;2.70;;;39.60;5.20;;;;;;5053741;28;20427;-74
2022/04/18 11:59:08;;;;;;;3.85;2.00;;;39.40;5.40;;;;;;5050606;28;20120;-73
2022/04/18 12:07:04;;;;;;;5.35;2.72;;;37.90;5.40;;;;;;5057641;28;20098;-72
2022/04/18 12:09:31;;;;;;;5.97;2.72;;;37.00;6.10;;;;;;5072785;28;20033;-74
2022/04/18 12:11:58;;;;;;;4.95;2.72;;;37.90;5.50;;;;;;5047048;28;20095;-73
2022/04/18 12:14:29;;;;;;;4.38;2.20;;;37.50;5.50;;;;;;5032172;28;20033;-73
2022/04/18 12:17:00;;;;;;;4.68;2.33;;;38.00;5.40;;;;;;5060372;28;20430;-74
2022/04/18 12:19:28;;;;;;;4.53;2.38;;;38.80;4.70;;;;;;5048186;28;20071;-73
2022/04/18 12:21:56;;;;;;;4.60;2.10;;;39.20;5.30;;;;;;5056132;28;20385;-72
2022/04/18 12:24:22;;;;;;;5.30;2.90;;;39.90;4.60;;;;;;5040248;28;20095;-73
2022/04/18 12:27:07;;;;;;;5.13;2.15;;;37.90;5.10;;;;;;5046581;28;20106;-73
2022/04/18 12:29:33;;;;;;;5.68;2.80;;;35.80;6.10;;;;;;5036533;28;20087;-73
2022/04/18 12:32:00;;;;;;;4.03;1.90;;;35.10;6.30;;;;;;5036433;28;20029;-74
2022/04/18 12:34:26;;;;;;;6.13;3.55;;;34.70;6.60;;;;;;5065600;28;20040;-72
2022/04/18 12:37:18;;;;;;;9.80;4.32;;;35.90;6.00;;;;;;5064895;28;20078;-73
2022/04/18 12:39:44;;;;;;;5.47;2.58;;;34.60;6.20;;;;;;5055581;28;20421;-72
2022/04/18 12:42:10;;;;;;;6.55;2.92;;;33.40;7.10;;;;;;5063918;28;20056;-74
2022/04/18 12:44:39;;;;;;;4.40;2.10;;;32.60;7.10;;;;;;5055599;28;20082;-73
2022/04/18 12:47:25;;;;;;;7.50;2.40;;;31.70;7.10;;;;;;5038851;28;20036;-73
2022/04/18 12:50:12;;;;;;;6.17;1.73;;;31.80;7.60;;;;;;5065038;28;20056;-73
2022/04/18 12:52:57;;;;;;;4.65;2.00;;;31.10;7.90;;;;;;5041267;28;20469;-75
2022/04/18 12:55:42;;;;;;;5.18;2.10;;;30.20;8.20;;;;;;5062725;28;20040;-74
2022/04/18 12:58:19;;;;;;;3.95;1.80;;;29.30;9.00;;;;;;5048701;28;20069;-75
2022/04/18 13:00:49;;;;;;;5.22;2.03;;;28.20;9.50;;;;;;5043852;28;20025;-75
2022/04/18 13:03:17;;;;;;;3.65;1.67;;;28.60;9.70;;;;;;5061228;28;20489;-73
2022/04/18 13:06:03;;;;;;;5.07;1.52;;;31.80;7.90;;;;;;5044003;28;20038;-75
2022/04/18 13:08:29;;;;;;;4.68;2.30;;;35.20;7.00;;;;;;5055209;28;20060;-74
2022/04/18 13:10:56;;;;;;;6.35;2.08;;;37.00;6.60;;;;;;5054279;28;20516;-76
2022/04/18 13:13:22;;;;;;;3.97;1.60;;;37.70;5.90;;;;;;5059015;28;20549;-75
2022/04/18 13:15:49;;;;;;;4.03;1.77;;;38.10;5.90;;;;;;5043071;28;20028;-73
2022/04/18 13:18:37;;;;;;;3.60;1.70;;;38.60;5.80;;;;;;5063315;28;20068;-73
2022/04/18 13:21:03;;;;;;;4.32;1.90;;;39.20;6.20;;;;;;5064947;28;20500;-73
2022/04/18 13:23:29;;;;;;;5.00;2.05;;;39.40;5.80;;;;;;5072271;28;20436;-73
2022/04/18 13:25:55;;;;;;;4.05;1.70;;;40.20;5.80;;;;;;5053416;28;20025;-73
2022/04/18 13:28:22;;;;;;;4.10;1.45;;;40.90;5.20;;;;;;5071766;28;20068;-74
2022/04/18 13:30:49;;;;;;;3.97;1.90;;;40.80;5.10;;;;;;5051266;28;20086;-73
2022/04/18 13:33:15;;;;;;;5.10;2.28;;;39.00;5.80;;;;;;5054796;28;20052;-73